MSC Bremen — A8LK7 — position and weather

sailwx.info

Track history (hours):
 
Tides and Currents Weather Stations Pressure Air Temp Water Temp Dewpoint Dewpoint Depression Visibility Wind Speed Wind Dir Waves Ship Positions

MSC Bremen

Last reported at 2016-Dec-08 01:32 UTC. Time now 2016-Dec-08 02:11 UTC.
Position N 52°29' E 003°01'.

Length 294 m; ; draft 13.7 m.

Type: Ship (hazmat cat A). MMSI: 636091270.

Date/timePositionNaut miles runAvg speedWind from/ knotsBaromVisibWave heightAir tempDewpointWater temp
2016-Dec-08 01:32N 52°29' E 003°01'1717.0
2016-Dec-08 00:30N 52°35' E 003°28'1717.5
2016-Dec-07 23:33N 52°48' E 003°45'1817.8
2016-Dec-07 22:33N 53°01' E 004°06'1717.4
2016-Dec-07 21:33N 53°13' E 004°27'1817.8
2016-Dec-07 20:33N 53°29' E 004°40'1919.2
2016-Dec-07 19:33N 53°37' E 005°10'4419.9
2016-Dec-07 17:20N 53°50' E 006°21'4916.6
2016-Dec-07 14:23N 53°55' E 007°43'8 9.3
2016-Dec-07 13:33N 53°52' E 007°55'1313.2
2016-Dec-07 12:33N 53°44' E 008°14'1313.2
2016-Dec-07 11:33N 53°36' E 008°31'1 1.3
2016-Dec-07 10:33N 53°35' E 008°32'0 0.0
2016-Dec-07 09:32N 53°35' E 008°32'0 0.0
2016-Dec-07 08:33N 53°35' E 008°32'0 0.0
2016-Dec-07 07:33N 53°35' E 008°32'0 0.0
2016-Dec-07 06:32N 53°35' E 008°32'0 0.0
2016-Dec-07 05:33N 53°35' E 008°32'0 0.0
2016-Dec-07 04:32N 53°35' E 008°32'0 0.0
2016-Dec-07 03:33N 53°35' E 008°32'0 0.0
2016-Dec-07 02:32N 53°35' E 008°32'0 0.0
2016-Dec-07 01:32N 53°35' E 008°32'0 0.0
2016-Dec-07 00:32N 53°35' E 008°32'0 0.0
2016-Dec-06 23:33N 53°35' E 008°32'0 0.0
2016-Dec-06 22:33N 53°35' E 008°32'0 0.0
2016-Dec-06 21:33N 53°35' E 008°32'0 0.0
2016-Dec-06 20:32N 53°35' E 008°32'0 0.0
2016-Dec-06 18:32N 53°35' E 008°32'0 0.0
2016-Dec-06 17:29N 53°35' E 008°32'0 0.0
2016-Dec-06 16:33N 53°35' E 008°32'0 0.0
2016-Dec-06 15:32N 53°35' E 008°32'0 0.0
2016-Dec-06 14:32N 53°35' E 008°32'0 0.0
2016-Dec-06 13:33N 53°35' E 008°32'0 0.0
2016-Dec-06 12:32N 53°35' E 008°32'0 0.0
2016-Dec-06 11:33N 53°35' E 008°32'0 0.0
2016-Dec-06 10:33N 53°35' E 008°32'7 7.0
2016-Dec-06 09:33N 53°40' E 008°23'1514.6
2016-Dec-06 08:33N 53°50' E 008°05'1313.3
2016-Dec-06 07:33N 53°53' E 007°44'8 7.3
2016-Dec-06 06:25N 53°53' E 007°29'0 0.3
2016-Dec-06 05:26N 53°53' E 007°29'0 0.4
2016-Dec-06 04:32N 53°53' E 007°28'1 0.8
2016-Dec-06 03:33N 53°54' E 007°28'1 1.0
2016-Dec-06 02:31N 53°53' E 007°27'3 3.5
2016-Dec-06 01:33N 53°52' E 007°21'3 3.4
2016-Dec-06 00:32N 53°52' E 007°15'5 5.4
2016-Dec-05 23:33N 53°52' E 007°06'1514.8
2016-Dec-05 22:33N 53°48' E 006°42'1515.5
2016-Dec-05 21:33N 53°44' E 006°17'1515.5
2016-Dec-05 20:33N 53°39' E 005°52'1615.6
2016-Dec-05 19:33N 53°34' E 005°27'1615.5
2016-Dec-05 18:32N 53°29' E 005°02'1514.9
2016-Dec-05 17:33N 53°22' E 004°41'1515.2
2016-Dec-05 16:33N 53°08' E 004°29'1515.2
2016-Dec-05 15:33N 52°55' E 004°17'1515.3
2016-Dec-05 14:33N 52°42' E 004°02'1615.6
2016-Dec-05 13:33N 52°31' E 003°44'1515.3
2016-Dec-05 12:33N 52°21' E 003°25'1615.1
2016-Dec-05 11:31N 52°09' E 003°08'2015.2
2016-Dec-05 10:11N 51°54' E 002°46'1015.2
2016-Dec-05 09:33N 51°47' E 002°36'1515.2
2016-Dec-05 08:34N 51°36' E 002°20'1615.5
2016-Dec-05 07:34N 51°23' E 002°07'1313.5
2016-Dec-05 06:34N 51°11' E 001°56'1514.7
2016-Dec-05 05:33N 51°01' E 001°38'1414.4
2016-Dec-05 04:33N 50°49' E 001°26'4514.9
2016-Dec-05 01:33N 50°23' E 000°29'1616.2
2016-Dec-05 00:33N 50°18' E 000°04'1716.7
2016-Dec-04 23:33N 50°13' W 000°21'1919.2
2016-Dec-04 22:33N 50°08' W 000°50'2019.9
2016-Dec-04 21:33N 50°05' W 001°20'1919.1
2016-Dec-04 20:33N 50°00' W 001°49'1817.9
2016-Dec-04 19:33N 49°56' W 002°16'1716.9
2016-Dec-04 18:32N 49°51' W 002°42'1716.5
2016-Dec-04 17:31N 49°47' W 003°07'1616.5
2016-Dec-04 16:33N 49°43' W 003°31'1616.2
2016-Dec-04 15:33N 49°43' W 003°56'1616.2
2016-Dec-04 14:33N 49°41' W 004°21'1616.0
2016-Dec-04 13:32N 49°39' W 004°46'1615.7
2016-Dec-04 12:33N 49°38' W 005°10'1717.1
2016-Dec-04 11:32N 49°38' W 005°36'1717.4
2016-Dec-04 10:34N 49°38' W 006°03'1017.8
2016-Dec-04 10:00N 49°36' W 006°18'918.8 100 / 211016.010.8 14.0 8.5
2016-Dec-04 09:30N 49°38' W 006°32'1918.3
2016-Dec-04 08:29N 49°40' W 007°00'1718.5
2016-Dec-04 07:34N 49°42' W 007°27'35918.3
2016-Dec-03 12:00N 50°12' W 016°42'20016.7 110 / 161012.010.8 14.010.5
2016-Dec-03 00:00N 50°06' W 021°54'56146.7 110 / 151009.610.8 13.0 9.4
2016-Dec-02 12:00N 48°42' W 036°06'0 0.0 110 / 181003.6 5.4 15.0 9.7
2016-Dec-02 01:00N 48°42' W 036°06'49040.9 120 / 231004.010.8 12.0 8.3
2016-Dec-01 13:00N 44°36' W 046°24'0 0.0 360 / 191005.010.8 10.0 1.2
2016-Dec-01 01:00N 44°36' W 046°24'78634.2 310 / 181012.210.8 6.0-1.2
2016-Nov-30 02:00N 40°12' W 063°06'0 0.0 320 / 161018.410.8 15.0 9.7
2016-Nov-29 16:00N 40°12' W 063°06'27010.8 320 / 191018.010.8 17.011.9
2016-Nov-28 15:00N 40°18' W 069°00'   320 / 171019.010.8 11.0 5.0
Track history (hours):
 
Tides and Currents Weather Stations Pressure Air Temp Water Temp Dewpoint Dewpoint Depression Visibility Wind Speed Wind Dir Waves Ship Positions

MSC Bremen

Last reported at 2016-Dec-08 01:32 UTC. Time now 2016-Dec-08 02:11 UTC.
Position N 52°29' E 003°01'.

Length 294 m; ; draft 13.7 m.

Type: Ship (hazmat cat A). MMSI: 636091270.

Date/timePositionNaut miles runAvg speedWind from/ knotsBaromVisibWave heightAir tempDewpointWater temp
2016-Dec-08 01:32N 52°29' E 003°01'1717.0
2016-Dec-08 00:30N 52°35' E 003°28'1717.5
2016-Dec-07 23:33N 52°48' E 003°45'1817.8
2016-Dec-07 22:33N 53°01' E 004°06'1717.4
2016-Dec-07 21:33N 53°13' E 004°27'1817.8
2016-Dec-07 20:33N 53°29' E 004°40'1919.2
2016-Dec-07 19:33N 53°37' E 005°10'4419.9
2016-Dec-07 17:20N 53°50' E 006°21'4916.6
2016-Dec-07 14:23N 53°55' E 007°43'8 9.3
2016-Dec-07 13:33N 53°52' E 007°55'1313.2
2016-Dec-07 12:33N 53°44' E 008°14'1313.2
2016-Dec-07 11:33N 53°36' E 008°31'1 1.3
2016-Dec-07 10:33N 53°35' E 008°32'0 0.0
2016-Dec-07 09:32N 53°35' E 008°32'0 0.0
2016-Dec-07 08:33N 53°35' E 008°32'0 0.0
2016-Dec-07 07:33N 53°35' E 008°32'0 0.0
2016-Dec-07 06:32N 53°35' E 008°32'0 0.0
2016-Dec-07 05:33N 53°35' E 008°32'0 0.0
2016-Dec-07 04:32N 53°35' E 008°32'0 0.0
2016-Dec-07 03:33N 53°35' E 008°32'0 0.0
2016-Dec-07 02:32N 53°35' E 008°32'0 0.0
2016-Dec-07 01:32N 53°35' E 008°32'0 0.0
2016-Dec-07 00:32N 53°35' E 008°32'0 0.0
2016-Dec-06 23:33N 53°35' E 008°32'0 0.0
2016-Dec-06 22:33N 53°35' E 008°32'0 0.0
2016-Dec-06 21:33N 53°35' E 008°32'0 0.0
2016-Dec-06 20:32N 53°35' E 008°32'0 0.0
2016-Dec-06 18:32N 53°35' E 008°32'0 0.0
2016-Dec-06 17:29N 53°35' E 008°32'0 0.0
2016-Dec-06 16:33N 53°35' E 008°32'0 0.0
2016-Dec-06 15:32N 53°35' E 008°32'0 0.0
2016-Dec-06 14:32N 53°35' E 008°32'0 0.0
2016-Dec-06 13:33N 53°35' E 008°32'0 0.0
2016-Dec-06 12:32N 53°35' E 008°32'0 0.0
2016-Dec-06 11:33N 53°35' E 008°32'0 0.0
2016-Dec-06 10:33N 53°35' E 008°32'7 7.0
2016-Dec-06 09:33N 53°40' E 008°23'1514.6
2016-Dec-06 08:33N 53°50' E 008°05'1313.3
2016-Dec-06 07:33N 53°53' E 007°44'8 7.3
2016-Dec-06 06:25N 53°53' E 007°29'0 0.3
2016-Dec-06 05:26N 53°53' E 007°29'0 0.4
2016-Dec-06 04:32N 53°53' E 007°28'1 0.8
2016-Dec-06 03:33N 53°54' E 007°28'1 1.0
2016-Dec-06 02:31N 53°53' E 007°27'3 3.5
2016-Dec-06 01:33N 53°52' E 007°21'3 3.4
2016-Dec-06 00:32N 53°52' E 007°15'5 5.4
2016-Dec-05 23:33N 53°52' E 007°06'1514.8
2016-Dec-05 22:33N 53°48' E 006°42'1515.5
2016-Dec-05 21:33N 53°44' E 006°17'1515.5
2016-Dec-05 20:33N 53°39' E 005°52'1615.6
2016-Dec-05 19:33N 53°34' E 005°27'1615.5
2016-Dec-05 18:32N 53°29' E 005°02'1514.9
2016-Dec-05 17:33N 53°22' E 004°41'1515.2
2016-Dec-05 16:33N 53°08' E 004°29'1515.2
2016-Dec-05 15:33N 52°55' E 004°17'1515.3
2016-Dec-05 14:33N 52°42' E 004°02'1615.6
2016-Dec-05 13:33N 52°31' E 003°44'1515.3
2016-Dec-05 12:33N 52°21' E 003°25'1615.1
2016-Dec-05 11:31N 52°09' E 003°08'2015.2
2016-Dec-05 10:11N 51°54' E 002°46'1015.2
2016-Dec-05 09:33N 51°47' E 002°36'1515.2
2016-Dec-05 08:34N 51°36' E 002°20'1615.5
2016-Dec-05 07:34N 51°23' E 002°07'1313.5
2016-Dec-05 06:34N 51°11' E 001°56'1514.7
2016-Dec-05 05:33N 51°01' E 001°38'1414.4
2016-Dec-05 04:33N 50°49' E 001°26'4514.9
2016-Dec-05 01:33N 50°23' E 000°29'1616.2
2016-Dec-05 00:33N 50°18' E 000°04'1716.7
2016-Dec-04 23:33N 50°13' W 000°21'1919.2
2016-Dec-04 22:33N 50°08' W 000°50'2019.9
2016-Dec-04 21:33N 50°05' W 001°20'1919.1
2016-Dec-04 20:33N 50°00' W 001°49'1817.9
2016-Dec-04 19:33N 49°56' W 002°16'1716.9
2016-Dec-04 18:32N 49°51' W 002°42'1716.5
2016-Dec-04 17:31N 49°47' W 003°07'1616.5
2016-Dec-04 16:33N 49°43' W 003°31'1616.2
2016-Dec-04 15:33N 49°43' W 003°56'1616.2
2016-Dec-04 14:33N 49°41' W 004°21'1616.0
2016-Dec-04 13:32N 49°39' W 004°46'1615.7
2016-Dec-04 12:33N 49°38' W 005°10'1717.1
2016-Dec-04 11:32N 49°38' W 005°36'1717.4
2016-Dec-04 10:34N 49°38' W 006°03'1017.8
2016-Dec-04 10:00N 49°36' W 006°18'918.8 100 / 211016.010.8 14.0 8.5
2016-Dec-04 09:30N 49°38' W 006°32'1918.3
2016-Dec-04 08:29N 49°40' W 007°00'1718.5
2016-Dec-04 07:34N 49°42' W 007°27'35918.3
2016-Dec-03 12:00N 50°12' W 016°42'20016.7 110 / 161012.010.8 14.010.5
2016-Dec-03 00:00N 50°06' W 021°54'56146.7 110 / 151009.610.8 13.0 9.4
2016-Dec-02 12:00N 48°42' W 036°06'0 0.0 110 / 181003.6 5.4 15.0 9.7
2016-Dec-02 01:00N 48°42' W 036°06'49040.9 120 / 231004.010.8 12.0 8.3
2016-Dec-01 13:00N 44°36' W 046°24'0 0.0 360 / 191005.010.8 10.0 1.2
2016-Dec-01 01:00N 44°36' W 046°24'78634.2 310 / 181012.210.8 6.0-1.2
2016-Nov-30 02:00N 40°12' W 063°06'0 0.0 320 / 161018.410.8 15.0 9.7
2016-Nov-29 16:00N 40°12' W 063°06'27010.8 320 / 191018.010.8 17.011.9
2016-Nov-28 15:00N 40°18' W 069°00'   320 / 171019.010.8 11.0 5.0

Dump ship's entire track history